Jacumba, CA (91934)

3:42 AM PST on November 28, 2014 (GMT -0800)
J-town | Change Station
CLOSE
Current Station
Personal Weather Station
Location: Jacumba, CA
Elevation: 2799 ft
Nearby Weather Stations

Elev 2799 ft 32.62 °N, 116.19 °W | Updated 12 minutes ago

Clear
Clear
30.2 °F
Feels Like 30 °F
N
0.0
Wind Variable Wind from West
Gusts 0.0 mph

Today
High -- | Low -- °F
--% Chance of Precip.
Yesterday
High -- | Low -- °F
Precip. -- in
6:26 AM 4:39 PM
Waxing Crescent, 39% visible
Pressure 30.00 in
Visibility -9999.0 miles
Clouds
Windchill 30 °F
Dew Point 14 °F
Humidity 51%
Rainfall 0.00 in
Snow Depth Not available.
UV 0.0 out of 12
Pollen 2.60 out of 12
Air Quality Not available.
Flu Activity Not available.
METAR KCZZ 281052Z AUTO 05005KT 05/M09 A3006 RMK AO1 SLP157 T00501089 $

More Conditions Fewer Conditions

Pressure 30.00 in
Visibility -9999.0 miles
Clouds
Windchill 30 °F
Dew Point 14 °F
Humidity 51%
Rainfall 0.00 in
Snow Depth Not available.
UV 0.0 out of 12
Pollen 2.60 out of 12
Air Quality Not available.
Flu Activity Not available.
METAR KCZZ 281052Z AUTO 05005KT 05/M09 A3006 RMK AO1 SLP157 T00501089 $

More Conditions Fewer Conditions

10-Day Weather Forecast

Almanac

Astronomy

Nov. 28, 2014 Rise Set
Actual Time
Civil Twilight
Nautical Twilight
Astronomical Twilight
Moon
Length of Visible Light
Length of Day
Tomorrow will be .
, % of the Moon is Illuminated

Today's Extremes

State Highs State Lows

Community

WunderPhotos

Upload Photos

1,774,198 photos uploaded!

WunderBlogs® & News

Nearby

Air Quality

  Air Quality AQ Index Pollutant
Not available.

Snow Depth

Station Depth Elevation

Earthquake Activity

City Distance Mag. Time & Date
Minimum magnitude displayed is 2.5.

Coastal Water Temperatures

Place Temperature

Nearby Weather Stations